Latest Weather Observations for Coonawarra

IDS60801

Issued at 12:05 pm CST Friday 18 April 2014 (issued every 30 minutes, with the page automatically refreshed every 10 minutes)

About weather observations | Map of weather stations | Latest weather observations for SA | Other Formats
Station Details ID: 026091 Name: COONAWARRA Lat: -37.29 Lon: 140.83 Height: 57.0 m
Data from the previous 72 hours. | See also: Recent months at Coonawarra
Date/Time
CST
Temp
°C
App
Temp
°C
Dew
Point
Rel
Hum
%
Delta-T
°C
Wind Press
QNH
hPa
Press
MSL
hPa
Rain
since 9 am
mm
Dir
 
Spd
km/h
Gust
km/h
Spd
kts
Gust
kts
18/12:00pm 17.3 10.8 4.9 44 5.9 SSW 28 37 15 20 1020.2 1020.2 0.0
18/11:30am 17.0 11.4 5.6 47 5.5 SSW 24 33 13 18 1020.2 - 0.0
18/11:00am 17.2 11.6 5.4 45 5.7 SSW 24 33 13 18 1020.1 - 0.0
18/10:30am 17.2 11.9 4.8 44 5.9 SSW 22 33 12 18 1020.0 - 0.0
18/10:00am 15.6 10.9 7.8 59 3.9 SSW 22 33 12 18 1019.8 - 0.0
18/09:30am 16.2 11.1 7.8 57 4.2 SW 24 37 13 20 1019.6 - 0.0
18/09:00am 15.3 11.3 9.0 66 3.2 SW 20 30 11 16 1019.6 1019.6 1.2
18/08:30am 14.8 11.6 11.2 79 1.9 SSW 19 26 10 14 1019.2 - 1.2
18/08:00am 14.1 12.0 12.3 89 1.0 SSW 15 20 8 11 1018.8 - 1.2
18/07:30am 13.5 11.8 12.6 94 0.5 SW 13 19 7 10 1018.3 - 1.2
18/07:00am 13.5 12.3 12.8 95 0.4 SW 11 15 6 8 1017.7 - 1.2
18/06:30am 13.8 11.1 12.9 94 0.5 SW 19 28 10 15 1017.3 - 1.0
18/06:00am 13.5 10.5 12.4 93 0.6 NW 20 32 11 17 1016.7 1016.7 0.8
18/05:30am 12.8 11.3 11.9 94 0.5 NNW 11 15 6 8 1016.4 - 0.6
18/05:00am 12.5 10.9 11.7 95 0.4 N 11 15 6 8 1016.4 - 0.6
18/04:30am 12.8 11.4 12.1 95 0.4 NNW 11 15 6 8 1016.1 - 0.6
18/04:00am 13.5 11.8 12.4 93 0.6 N 13 17 7 9 1015.9 - 0.6
18/03:30am 14.0 11.7 11.6 85 1.3 NW 15 24 8 13 1016.5 - 0.4
18/03:00am 14.3 12.0 10.3 77 2.1 NNW 13 17 7 9 1016.2 1016.2 0.2
18/02:30am 14.6 11.8 10.0 74 2.4 NNW 15 20 8 11 1016.4 - 0.2
18/02:00am 14.6 12.1 9.8 73 2.5 N 13 17 7 9 1016.2 - 0.2
18/01:30am 14.3 12.6 9.9 75 2.3 NNW 9 13 5 7 1016.8 - 0.2
18/01:00am 14.6 12.1 9.6 72 2.6 N 13 15 7 8 1016.8 - 0.2
18/12:30am 14.6 12.4 9.3 70 2.7 N 11 17 6 9 1016.7 - 0.2
18/12:00am 13.8 12.1 9.7 76 2.1 N 9 13 5 7 1016.9 1016.9 0.2
 
Date/Time
CST
Temp
°C
App
Temp
°C
Dew
Point
Rel
Hum
%
Delta-T
°C
Wind Press
QNH
hPa
Press
MSL
hPa
Rain
since 9 am
mm
Dir
 
Spd
km/h
Gust
km/h
Spd
kts
Gust
kts
17/11:30pm 13.0 11.4 10.1 82 1.5 N 9 11 5 6 1017.4 - 0.2
17/11:00pm 12.4 10.3 9.6 83 1.4 NNE 11 13 6 7 1017.9 - 0.2
17/10:30pm 10.9 8.7 9.3 90 0.8 NNE 11 13 6 7 1018.2 - 0.2
17/10:00pm 8.8 6.5 7.5 91 0.6 NNE 9 11 5 6 1018.7 - 0.2
17/09:30pm 8.2 5.4 7.1 93 0.5 NNE 11 11 6 6 1018.9 - 0.2
17/09:00pm 8.6 5.8 7.1 90 0.7 NNE 11 13 6 7 1018.9 1018.9 0.2
17/08:30pm 9.1 6.5 7.8 92 0.6 NNE 11 13 6 7 1018.9 - 0.2
17/08:00pm 9.4 6.8 7.7 89 0.8 NNE 11 11 6 6 1018.9 - 0.2
17/07:30pm 9.6 7.7 7.7 88 0.9 NW 7 7 4 4 1019.0 - 0.2
17/07:00pm 10.4 8.6 7.9 84 1.2 WNW 7 9 4 5 1019.1 - 0.2
17/06:30pm 11.8 10.3 9.2 84 1.3 W 7 7 4 4 1019.1 - 0.2
17/06:00pm 13.8 12.0 9.5 75 2.2 W 9 11 5 6 1018.9 1018.9 0.2
17/05:30pm 16.4 13.9 8.3 58 4.1 W 11 15 6 8 1019.0 - 0.2
17/05:00pm 17.6 14.8 8.4 55 4.7 W 13 17 7 9 1018.9 - 0.2
17/04:30pm 18.6 15.1 8.6 52 5.2 W 17 24 9 13 1018.9 - 0.2
17/04:00pm 19.4 14.9 8.7 50 5.6 W 22 30 12 16 1019.0 - 0.2
17/03:30pm 20.4 16.0 8.8 47 6.1 W 22 32 12 17 1018.7 - 0.2
17/03:00pm 21.7 17.5 7.6 40 7.3 W 19 28 10 15 1018.6 1018.6 0.2
17/02:30pm 21.9 16.5 4.3 31 8.6 WNW 22 33 12 18 1018.7 - 0.2
17/02:00pm 22.1 17.8 7.2 38 7.7 WNW 19 28 10 15 1018.7 - 0.2
17/01:30pm 21.9 17.6 7.7 40 7.4 WNW 20 33 11 18 1018.7 - 0.2
17/01:00pm 21.8 17.8 9.0 44 6.8 WNW 20 35 11 19 1019.1 - 0.0
17/12:30pm 20.6 17.0 10.0 50 5.7 NW 19 28 10 15 1019.6 - 0.0
17/12:00pm 20.0 16.9 11.7 59 4.6 NNW 19 28 10 15 1020.1 1020.1 0.0
17/11:30am 19.6 18.1 11.8 60 4.3 NNW 11 22 6 12 1020.6 - 0.0
17/11:00am 19.2 18.0 12.8 66 3.6 N 11 19 6 10 1020.7 - 0.0
17/10:30am 17.9 16.7 12.7 71 2.9 N 11 15 6 8 1020.8 - 0.0
17/10:00am 17.1 16.3 12.8 76 2.4 N 9 15 5 8 1020.9 - 0.0
17/09:30am 14.9 13.3 11.7 81 1.7 N 11 17 6 9 1021.0 - 0.0
17/09:00am 13.2 12.0 11.5 89 0.9 N 9 13 5 7 1021.2 1021.2 1.2
17/08:30am 11.9 10.9 10.9 94 0.5 N 7 11 4 6 1021.1 - 1.2
17/08:00am 10.4 10.4 9.8 96 0.3 CALM 0 0 0 0 1021.0 - 1.2
17/07:30am 9.2 8.9 8.8 97 0.2 CALM 0 0 0 0 1020.8 - 1.2
17/07:00am 8.1 7.6 7.7 97 0.2 CALM 0 0 0 0 1020.5 - 1.2
17/06:30am 6.5 5.6 6.1 97 0.2 CALM 0 0 0 0 1020.1 - 1.2
17/06:00am 6.0 3.8 5.5 97 0.2 NE 6 7 3 4 1020.0 1020.0 1.2
17/05:30am 4.8 2.4 4.3 97 0.2 N 6 6 3 3 1019.8 - 1.2
17/05:00am 4.9 3.7 4.4 97 0.2 CALM 0 0 0 0 1019.8 - 1.2
17/04:30am 4.3 2.9 3.8 97 0.2 CALM 0 0 0 0 1019.8 - 1.2
17/04:00am 4.5 3.3 4.5 100 0.0 CALM 0 0 0 0 1019.5 - 1.2
17/03:30am 4.5 3.1 3.8 95 0.3 CALM 0 0 0 0 1019.2 - 1.2
17/03:00am 4.8 3.5 4.3 97 0.2 CALM 0 0 0 0 1019.1 1019.1 1.2
17/02:30am 4.6 3.3 4.1 97 0.2 CALM 0 0 0 0 1019.2 - 1.2
17/02:00am 5.0 2.7 4.8 99 0.1 NE 6 6 3 3 1019.3 - 1.2
17/01:30am 6.3 4.0 5.6 95 0.3 NE 7 9 4 5 1019.5 - 1.2
17/01:00am 5.7 3.4 5.5 99 0.1 NE 7 9 4 5 1019.6 - 1.2
17/12:30am 6.0 4.9 5.3 95 0.3 CALM 0 0 0 0 1019.5 - 1.2
17/12:00am 5.8 4.8 5.6 99 0.1 CALM 0 0 0 0 1019.6 1019.6 1.2
 
Date/Time
CST
Temp
°C
App
Temp
°C
Dew
Point
Rel
Hum
%
Delta-T
°C
Wind Press
QNH
hPa
Press
MSL
hPa
Rain
since 9 am
mm
Dir
 
Spd
km/h
Gust
km/h
Spd
kts
Gust
kts
16/11:30pm 6.5 5.7 6.3 99 0.1 CALM 0 0 0 0 1019.7 - 1.2
16/11:00pm 7.3 6.6 7.1 99 0.1 CALM 0 0 0 0 1019.9 - 1.2
16/10:30pm 8.8 7.6 8.0 95 0.4 ENE 4 9 2 5 1020.0 - 1.2
16/10:00pm 9.9 7.7 9.3 96 0.3 ENE 11 13 6 7 1019.9 - 1.2
16/09:30pm 9.3 7.8 8.5 95 0.4 ENE 6 7 3 4 1020.1 - 1.2
16/09:00pm 9.8 8.5 9.2 96 0.3 ENE 6 6 3 3 1020.3 1020.3 1.2
16/08:30pm 11.4 10.3 10.8 96 0.3 E 7 9 4 5 1020.0 - 1.2
16/08:00pm 12.3 11.4 11.5 95 0.4 E 7 9 4 5 1019.9 - 1.2
16/07:30pm 13.3 12.8 12.2 93 0.6 ESE 6 7 3 4 1020.0 - 1.2
16/07:00pm 13.4 13.0 12.5 94 0.5 ESE 6 7 3 4 1019.7 - 1.2
16/06:30pm 13.5 12.5 12.2 92 0.7 S 9 11 5 6 1019.5 - 1.2
16/06:00pm 13.9 13.3 12.2 89 0.9 WSW 7 9 4 5 1019.5 1019.5 1.2
16/05:30pm 14.7 13.4 12.5 87 1.2 SW 11 15 6 8 1019.4 - 1.2
16/05:00pm 14.7 12.3 11.5 81 1.7 SE 15 19 8 10 1017.9 - 0.8
16/04:30pm 16.9 14.5 10.1 64 3.6 SSW 13 19 7 10 1019.3 - 0.0
16/04:00pm 18.9 14.7 8.2 50 5.5 SW 20 28 11 15 1019.4 - 0.0
16/03:30pm 21.4 16.6 7.2 40 7.3 WSW 22 30 12 16 1019.0 - 0.0
16/03:00pm 21.2 17.1 6.3 38 7.5 W 17 24 9 13 1018.8 1018.8 0.0
16/02:30pm 21.8 17.4 6.7 37 7.7 W 19 28 10 15 1018.6 - 0.0
16/02:00pm 21.8 18.0 7.5 39 7.4 WNW 17 30 9 16 1018.5 - 0.0
16/01:30pm 21.1 16.4 7.8 42 6.9 WNW 22 35 12 19 1018.6 - 0.0
16/01:00pm 21.3 16.6 7.8 41 7.0 NW 22 32 12 17 1018.8 - 0.0
16/12:30pm 21.0 17.6 7.6 42 6.9 NW 15 24 8 13 1019.0 - 0.0
16/12:00pm 20.1 17.4 8.9 48 5.9 WNW 13 22 7 12 1019.6 1019.6 0.0
16/11:30am 19.0 16.4 9.5 54 5.0 WNW 13 20 7 11 1019.9 - 0.0
16/11:00am 18.3 15.3 9.3 55 4.7 NW 15 20 8 11 1020.0 - 0.0
16/10:30am 18.0 14.9 9.0 55 4.7 NNW 15 22 8 12 1020.1 - 0.0
16/10:00am 17.1 14.5 9.2 59 4.1 N 13 19 7 10 1020.3 - 0.0
16/09:30am 16.0 13.6 9.9 67 3.2 N 13 19 7 10 1020.6 - 0.0
16/09:00am 12.8 11.7 10.5 86 1.2 N 7 13 4 7 1020.7 1020.7 0.0
16/08:30am 11.1 10.0 10.1 94 0.5 NNW 6 9 3 5 1020.8 - 0.0
16/08:00am 9.1 8.0 8.5 96 0.3 NW 4 7 2 4 1020.6 - 0.0
16/07:30am 7.9 7.3 7.5 97 0.2 CALM 0 0 0 0 1020.7 - 0.0
16/07:00am 6.4 5.5 6.0 97 0.2 CALM 0 0 0 0 1020.5 - 0.0
16/06:30am 5.9 4.1 5.2 95 0.3 W 4 7 2 4 1020.5 - 0.0
16/06:00am 5.7 4.6 5.0 95 0.3 CALM 0 0 0 0 1020.4 1020.4 0.0
16/05:30am 6.7 5.9 6.3 97 0.2 CALM 0 0 0 0 1020.2 - 0.0
16/05:00am 8.3 6.5 7.9 97 0.2 SE 7 9 4 5 1020.1 - 0.0
16/04:30am 8.1 6.2 7.7 97 0.2 E 7 9 4 5 1019.9 - 0.0
16/04:00am 7.8 5.8 7.2 96 0.3 E 7 9 4 5 1020.2 - 0.0
16/03:30am 5.9 4.9 5.4 97 0.2 CALM 0 0 0 0 1020.6 - 0.0
16/03:00am 6.0 3.7 5.5 97 0.2 SSE 7 7 4 4 1020.8 1020.8 0.0
16/02:30am 5.9 3.7 5.4 97 0.2 SSE 6 7 3 4 1021.1 - 0.0
16/02:00am 6.2 4.0 5.5 95 0.3 SSE 6 7 3 4 1021.3 - 0.0
16/01:30am 6.0 3.6 5.3 95 0.3 S 7 9 4 5 1021.7 - 0.0
16/01:00am 6.2 3.9 5.5 95 0.3 S 7 7 4 4 1021.9 - 0.0
16/12:30am 6.5 4.2 5.6 94 0.4 SSW 7 9 4 5 1022.0 - 0.0
16/12:00am 8.9 7.1 8.1 95 0.4 SSE 7 9 4 5 1021.8 1021.8 0.0
 
Date/Time
CST
Temp
°C
App
Temp
°C
Dew
Point
Rel
Hum
%
Delta-T
°C
Wind Press
QNH
hPa
Press
MSL
hPa
Rain
since 9 am
mm
Dir
 
Spd
km/h
Gust
km/h
Spd
kts
Gust
kts
15/11:30pm 8.8 6.9 7.7 93 0.5 SSE 7 9 4 5 1021.8 - 0.0
15/11:00pm 9.4 7.7 8.2 92 0.6 ESE 7 11 4 6 1022.1 - 0.0
15/10:30pm 12.1 10.5 10.3 89 0.9 SE 9 15 5 8 1022.5 - 0.0
15/10:00pm 12.5 10.6 10.6 88 1.0 SE 11 19 6 10 1022.6 - 0.0
15/09:30pm 12.4 10.9 10.7 89 0.9 SSE 9 11 5 6 1022.8 - 0.0
15/09:00pm 13.3 11.5 11.0 86 1.2 SE 11 15 6 8 1022.8 1022.8 0.0
15/08:30pm 13.5 11.8 11.2 86 1.2 SE 11 15 6 8 1022.7 - 0.0
15/08:00pm 12.8 11.5 11.1 89 0.9 S 9 11 5 6 1022.6 - 0.0
15/07:30pm 14.2 12.7 11.8 85 1.3 SSE 11 15 6 8 1022.5 - 0.0
15/07:00pm 14.8 13.3 11.8 82 1.6 SSE 11 15 6 8 1022.7 - 0.0
15/06:30pm 15.4 13.8 11.5 77 2.1 S 11 15 6 8 1022.7 - 0.0
15/06:00pm 16.5 14.4 11.3 71 2.8 S 13 19 7 10 1022.3 1022.3 0.0
15/05:30pm 17.6 15.1 10.9 65 3.6 S 15 24 8 13 1022.0 - 0.0
15/05:00pm 18.5 15.4 10.3 59 4.4 S 17 22 9 12 1021.7 - 0.0
15/04:30pm 18.7 15.8 9.8 56 4.7 S 15 19 8 10 1021.7 - 0.0
15/04:00pm 20.9 18.0 9.7 48 6.0 S 15 20 8 11 1021.6 - 0.0
15/03:30pm 20.2 17.6 9.2 49 5.8 SSE 13 19 7 10 1021.6 - 0.0
15/03:00pm 20.1 17.4 8.9 48 5.9 S 13 24 7 13 1021.7 1021.7 0.0
15/02:30pm 19.5 16.6 9.7 53 5.2 SSE 15 26 8 14 1021.8 - 0.0
15/02:00pm 19.5 15.7 9.0 50 5.5 S 19 26 10 14 1021.9 - 0.0
15/01:30pm 20.7 17.9 8.5 45 6.4 ESE 13 20 7 11 1022.0 - 0.0
15/01:00pm 19.4 16.4 9.1 51 5.4 SE 15 26 8 14 1022.4 - 0.0
15/12:30pm 19.6 15.9 9.6 52 5.3 SSE 19 26 10 14 1023.3 - 0.0

Other Formats:

Comma delimited format used in spreadsheet applications
http://www.bom.gov.au/fwo/IDS60801/IDS60801.94817.axf

JavaScript Object Notation format (JSON) in row-major order
http://www.bom.gov.au/fwo/IDS60801/IDS60801.94817.json